createdAt,value
2018-01-24T00:01:07.187Z,24.60
2018-01-24T00:03:34.784Z,25.07
2018-01-24T00:06:02.224Z,23.63
2018-01-24T00:08:29.668Z,24.67
2018-01-24T00:10:57.123Z,25.13
2018-01-24T00:13:24.562Z,23.37
2018-01-24T00:15:51.988Z,22.30
2018-01-24T00:18:19.709Z,21.10
2018-01-24T00:20:47.168Z,20.77
2018-01-24T00:23:14.620Z,19.77
2018-01-24T00:25:42.084Z,19.10
2018-01-24T00:28:09.520Z,17.57
2018-01-24T00:30:36.996Z,18.57
2018-01-24T00:33:04.760Z,16.40
2018-01-24T00:35:32.216Z,16.80
2018-01-24T00:37:59.658Z,15.77
2018-01-24T00:40:27.133Z,15.37
2018-01-24T00:42:54.596Z,15.50
2018-01-24T00:45:22.038Z,13.67
2018-01-24T00:47:49.724Z,14.27
2018-01-24T00:50:17.268Z,15.70
2018-01-24T00:52:44.692Z,14.23
2018-01-24T00:55:12.131Z,15.43
2018-01-24T00:57:40.359Z,15.27
2018-01-24T01:00:07.822Z,14.50
2018-01-24T01:02:35.568Z,14.47
2018-01-24T01:05:02.995Z,13.80
2018-01-24T01:07:30.433Z,14.23
2018-01-24T01:09:57.872Z,13.70
2018-01-24T01:12:25.319Z,14.20
2018-01-24T01:14:52.761Z,14.37
2018-01-24T01:17:20.524Z,13.27
2018-01-24T01:19:47.980Z,13.43
2018-01-24T01:22:15.419Z,13.93
2018-01-24T01:24:42.896Z,13.77
2018-01-24T01:27:10.352Z,13.97
2018-01-24T01:29:37.784Z,13.20
2018-01-24T01:32:05.268Z,12.97
2018-01-24T01:34:32.734Z,13.03
2018-01-24T01:37:00.185Z,13.93
2018-01-24T01:39:27.644Z,15.10
2018-01-24T01:41:55.091Z,15.73
2018-01-24T01:44:22.542Z,16.00
2018-01-24T01:46:50.212Z,17.27
2018-01-24T01:49:17.651Z,18.57
2018-01-24T01:51:45.080Z,18.77
2018-01-24T01:54:13.300Z,21.00
2018-01-24T01:56:40.752Z,19.83
2018-01-24T01:59:08.218Z,20.87
2018-01-24T02:01:35.981Z,17.77
2018-01-24T02:04:03.412Z,19.80
2018-01-24T02:06:30.844Z,19.13
2018-01-24T02:08:59.068Z,19.83
2018-01-24T02:11:26.501Z,20.23
2018-01-24T02:13:53.936Z,19.30
2018-01-24T02:16:22.146Z,19.17
2018-01-24T02:18:49.620Z,19.20
2018-01-24T02:21:17.071Z,18.90
2018-01-24T02:23:44.517Z,18.73
2018-01-24T02:26:11.954Z,18.03
2018-01-24T02:28:39.382Z,17.57
2018-01-24T02:31:07.216Z,18.27
2018-01-24T02:33:34.666Z,17.00
2018-01-24T02:36:02.103Z,17.67
2018-01-24T02:38:50.161Z,17.67
2018-01-24T02:41:17.607Z,16.33
2018-01-24T02:43:45.077Z,16.77
2018-01-24T02:46:12.540Z,15.03
2018-01-24T02:48:39.992Z,16.13
2018-01-24T02:51:07.556Z,15.40
2018-01-24T02:53:35.308Z,16.50
2018-01-24T02:56:02.749Z,16.07
2018-01-24T02:58:30.177Z,15.23
2018-01-24T03:00:58.407Z,15.37
2018-01-24T03:03:25.840Z,15.77
2018-01-24T03:05:53.268Z,16.30
2018-01-24T03:08:21.799Z,15.67
2018-01-24T03:10:49.353Z,15.73
2018-01-24T03:13:16.769Z,15.33
2018-01-24T03:15:44.984Z,15.50
2018-01-24T03:18:12.447Z,15.47
2018-01-24T03:20:39.900Z,15.00
2018-01-24T03:23:07.676Z,14.97
2018-01-24T03:25:35.119Z,15.50
2018-01-24T03:28:02.588Z,14.60
2018-01-24T03:30:30.143Z,14.87
2018-01-24T03:32:57.577Z,15.40
2018-01-24T03:35:25.060Z,15.27
2018-01-24T03:37:52.620Z,14.53
2018-01-24T03:40:20.076Z,14.97
2018-01-24T03:42:47.547Z,15.60
2018-01-24T03:45:15.293Z,15.73
2018-01-24T03:47:42.752Z,16.40
2018-01-24T03:50:10.208Z,18.27
2018-01-24T03:52:37.657Z,20.47
2018-01-24T03:55:05.120Z,19.50
2018-01-24T03:57:32.551Z,19.93
2018-01-24T04:00:00.230Z,20.63
2018-01-24T04:02:27.703Z,21.53
2018-01-24T04:04:55.149Z,20.20
2018-01-24T04:07:22.620Z,20.23
2018-01-24T04:09:50.057Z,20.03
2018-01-24T04:12:17.521Z,21.07
2018-01-24T04:14:45.290Z,21.43
2018-01-24T04:17:12.720Z,21.13
2018-01-24T04:19:40.208Z,20.83
2018-01-24T04:22:07.655Z,20.87
2018-01-24T04:24:35.102Z,20.43
2018-01-24T04:27:02.576Z,20.77
2018-01-24T04:29:30.344Z,21.60
2018-01-24T04:31:57.782Z,21.57
2018-01-24T04:34:25.250Z,22.53
2018-01-24T04:36:52.697Z,23.00
2018-01-24T04:39:20.128Z,23.27
2018-01-24T04:41:48.332Z,22.17
2018-01-24T04:44:16.108Z,24.30
2018-01-24T04:46:43.545Z,22.43
2018-01-24T04:49:11.028Z,23.70
2018-01-24T04:51:38.477Z,24.80
2018-01-24T04:54:05.922Z,23.43
2018-01-24T04:56:33.348Z,24.93
2018-01-24T04:59:01.564Z,23.33
2018-01-24T05:01:29.000Z,23.50
2018-01-24T05:03:56.438Z,23.27
2018-01-24T05:06:24.881Z,24.13
2018-01-24T05:08:52.317Z,23.13
2018-01-24T05:11:19.748Z,21.97
2018-01-24T05:13:47.224Z,21.97
2018-01-24T05:16:14.673Z,21.93
2018-01-24T05:18:42.152Z,21.47
2018-01-24T05:21:10.324Z,22.47
2018-01-24T05:23:37.780Z,21.67
2018-01-24T05:26:05.240Z,22.53
2018-01-24T05:28:32.690Z,22.40
2018-01-24T05:31:00.138Z,20.83
2018-01-24T05:33:27.580Z,21.10
2018-01-24T05:35:55.267Z,19.93
2018-01-24T05:38:22.740Z,19.70
2018-01-24T05:40:50.173Z,18.50
2018-01-24T05:43:17.608Z,18.67
2018-01-24T05:45:45.099Z,16.67
2018-01-24T05:48:12.557Z,17.20
2018-01-24T05:50:40.321Z,15.43
2018-01-24T05:53:07.779Z,15.13
2018-01-24T05:55:35.207Z,14.43
2018-01-24T05:58:02.689Z,13.33
2018-01-24T06:00:30.146Z,13.10
2018-01-24T06:02:57.594Z,13.33
2018-01-24T06:05:25.060Z,11.83
2018-01-24T06:07:52.625Z,11.30
2018-01-24T06:10:20.076Z,12.67
2018-01-24T06:12:47.769Z,11.87
2018-01-24T06:15:16.730Z,11.70
2018-01-24T06:17:44.188Z,11.63
2018-01-24T06:20:11.644Z,11.30
2018-01-24T06:22:39.102Z,12.13
2018-01-24T06:25:06.531Z,11.27
2018-01-24T06:27:33.976Z,10.27
2018-01-24T06:30:02.180Z,11.00
2018-01-24T06:32:29.611Z,11.30
2018-01-24T06:34:57.108Z,11.80
2018-01-24T06:37:24.564Z,11.00
2018-01-24T06:39:52.020Z,10.30
2018-01-24T06:42:19.493Z,10.93
2018-01-24T06:44:47.037Z,10.33
2018-01-24T06:47:14.472Z,12.23
2018-01-24T06:49:41.944Z,9.67
2018-01-24T06:52:09.385Z,9.00
2018-01-24T06:54:36.864Z,9.07
2018-01-24T06:57:04.632Z,8.83
2018-01-24T06:59:32.084Z,8.33
2018-01-24T07:01:59.511Z,8.67
2018-01-24T07:04:26.951Z,8.77
2018-01-24T07:06:55.144Z,9.13
2018-01-24T07:09:22.580Z,7.70
2018-01-24T07:11:50.783Z,8.27
2018-01-24T07:14:30.189Z,7.37
2018-01-24T07:16:57.704Z,7.23
2018-01-24T07:19:25.152Z,8.00
2018-01-24T07:21:52.591Z,7.27
2018-01-24T07:24:20.078Z,6.97
2018-01-24T07:26:47.496Z,7.30
2018-01-24T07:29:14.965Z,7.03
2018-01-24T07:31:42.404Z,6.80
2018-01-24T07:34:10.596Z,7.20
2018-01-24T07:36:38.029Z,7.03
2018-01-24T07:39:06.256Z,6.63
2018-01-24T07:41:33.696Z,6.47
2018-01-24T07:44:01.154Z,6.53
2018-01-24T07:46:28.604Z,6.10
2018-01-24T07:48:56.036Z,6.17
2018-01-24T07:51:23.457Z,5.90
2018-01-24T07:53:51.688Z,6.00
2018-01-24T07:56:19.140Z,5.73
2018-01-24T07:58:46.591Z,4.97
2018-01-24T08:01:14.024Z,5.10
2018-01-24T08:03:41.451Z,5.17
2018-01-24T08:06:08.884Z,5.37
2018-01-24T08:08:37.094Z,5.10
2018-01-24T08:11:04.516Z,5.03
2018-01-24T08:13:32.739Z,4.80
2018-01-24T08:16:00.168Z,4.93
2018-01-24T08:18:27.648Z,4.33
2018-01-24T08:20:55.095Z,4.50
2018-01-24T08:23:22.768Z,4.40
2018-01-24T08:25:50.201Z,4.40
2018-01-24T08:28:17.680Z,4.10
2018-01-24T08:30:45.136Z,4.20
2018-01-24T08:33:12.604Z,3.90
2018-01-24T08:35:40.048Z,3.83
2018-01-24T08:38:07.584Z,3.07
2018-01-24T08:40:35.030Z,3.50
2018-01-24T08:43:03.236Z,3.13
2018-01-24T12:48:04.724Z,0.73
2018-01-24T12:50:32.172Z,0.80
2018-01-24T12:52:59.632Z,0.77
2018-01-24T12:55:27.396Z,0.80
2018-01-24T12:57:54.847Z,0.60
2018-01-24T13:00:22.308Z,0.70
2018-01-24T13:02:49.767Z,1.20
2018-01-24T13:05:17.224Z,0.50
2018-01-24T13:07:44.680Z,0.50
2018-01-24T13:10:12.118Z,0.57
2018-01-24T13:12:39.605Z,0.63
2018-01-24T13:15:07.031Z,0.70
2018-01-24T13:17:34.523Z,0.67
2018-01-24T13:20:01.944Z,0.60
2018-01-24T13:22:29.384Z,0.70
2018-01-24T13:24:57.651Z,0.70
2018-01-24T13:27:25.059Z,0.67
2018-01-24T13:29:52.494Z,0.63
2018-01-24T13:32:19.928Z,0.70
2018-01-24T13:34:48.124Z,0.77
2018-01-24T13:37:15.641Z,0.80
2018-01-24T13:39:43.058Z,0.70
2018-01-24T13:42:10.519Z,0.73
2018-01-24T13:44:37.941Z,0.80
2018-01-24T13:47:05.432Z,0.90
2018-01-24T13:49:32.889Z,0.50
2018-01-24T13:52:00.348Z,0.73
2018-01-24T13:54:27.796Z,0.70
2018-01-24T13:56:55.260Z,1.10
2018-01-24T13:59:22.697Z,0.60
2018-01-24T14:01:50.124Z,0.70
2018-01-24T14:04:18.329Z,0.70
2018-01-24T14:06:45.752Z,0.50
2018-01-24T14:09:14.332Z,0.60
2018-01-24T14:11:41.739Z,0.47
2018-01-24T14:14:09.173Z,0.90
2018-01-24T14:16:36.612Z,0.70
2018-01-24T14:19:04.832Z,0.70
2018-01-24T14:21:32.268Z,0.50
2018-01-24T14:23:59.718Z,0.77
2018-01-24T14:26:27.204Z,0.57
2018-01-24T14:28:54.659Z,0.50
2018-01-24T14:31:22.092Z,0.80
2018-01-24T14:33:49.568Z,0.80
2018-01-24T14:36:17.032Z,0.90
2018-01-24T14:38:44.800Z,0.80
2018-01-24T14:41:12.248Z,0.60
2018-01-24T14:43:39.678Z,0.80
2018-01-24T14:46:07.168Z,0.77
2018-01-24T14:48:34.603Z,0.50
2018-01-24T14:51:02.024Z,0.67
2018-01-24T14:53:29.468Z,0.77
2018-01-24T14:55:56.904Z,1.07
2018-01-24T14:58:24.336Z,0.70
2018-01-24T15:00:51.770Z,0.97
2018-01-24T15:03:19.962Z,0.73
2018-01-24T15:05:47.444Z,0.80
2018-01-24T15:08:15.119Z,0.63
2018-01-24T15:10:42.736Z,0.90
2018-01-24T15:13:10.160Z,0.80
2018-01-24T15:15:37.598Z,0.80
2018-01-24T15:18:05.025Z,0.83
2018-01-24T15:20:32.488Z,0.73
2018-01-24T15:23:01.763Z,0.83
2018-01-24T15:25:29.345Z,0.87
2018-01-24T15:27:56.752Z,0.80
2018-01-24T15:30:24.193Z,0.80
2018-01-24T15:32:51.622Z,1.00
2018-01-24T15:35:19.048Z,0.80
2018-01-24T15:37:46.524Z,1.00
2018-01-24T15:40:13.932Z,0.90
2018-01-24T15:42:41.448Z,0.90
2018-01-24T15:45:08.893Z,0.70
2018-01-24T15:47:36.312Z,1.00
2018-01-24T15:50:04.527Z,0.97
2018-01-24T15:52:31.957Z,0.73
2018-01-24T15:55:00.158Z,0.80
2018-01-24T15:57:27.587Z,1.03
2018-01-24T15:59:55.896Z,0.60
2018-01-24T16:02:23.328Z,1.10
2018-01-24T16:04:50.808Z,0.90
2018-01-24T16:07:18.245Z,0.70
2018-01-24T16:09:45.728Z,1.03
2018-01-24T16:12:13.160Z,1.10
2018-01-24T16:14:40.604Z,1.00
2018-01-24T16:17:08.807Z,1.10
2018-01-24T16:19:36.272Z,0.90
2018-01-24T16:22:03.728Z,0.97
2018-01-24T16:24:31.165Z,0.80
2018-01-24T16:26:58.648Z,1.10
2018-01-24T16:29:26.092Z,1.20
2018-01-24T16:31:53.560Z,0.77
2018-01-24T16:34:20.992Z,1.00
2018-01-24T16:36:48.445Z,1.37
2018-01-24T16:39:15.935Z,1.30
2018-01-24T16:41:43.329Z,1.10
2018-01-24T16:44:10.769Z,1.10
2018-01-24T16:46:38.395Z,1.10
2018-01-24T16:49:05.806Z,0.97
2018-01-24T16:51:33.544Z,1.27
2018-01-24T16:54:01.084Z,1.23
2018-01-24T16:56:28.535Z,1.57
2018-01-24T16:58:56.096Z,1.20
2018-01-24T17:01:23.552Z,1.60
2018-01-24T17:03:51.014Z,1.33
2018-01-24T17:06:18.453Z,1.60
2018-01-24T17:08:45.899Z,1.60
2018-01-24T17:11:13.324Z,1.10
2018-01-24T17:13:40.855Z,1.27
2018-01-24T17:16:08.271Z,1.30
2018-01-24T17:18:35.759Z,1.57
2018-01-24T17:21:03.220Z,1.27
2018-01-24T17:23:30.672Z,1.83
2018-01-24T17:25:58.100Z,1.30
2018-01-24T17:28:25.580Z,1.20
2018-01-24T17:30:53.015Z,1.10
2018-01-24T17:33:20.441Z,1.47
2018-01-24T17:35:48.672Z,1.20
2018-01-24T17:38:16.121Z,1.43
2018-01-24T17:40:43.532Z,1.30
2018-01-24T17:43:11.040Z,1.17
2018-01-24T17:45:38.479Z,1.43
2018-01-24T17:48:05.964Z,1.33
2018-01-24T17:50:33.401Z,1.50
2018-01-24T17:53:00.837Z,1.40
2018-01-24T17:55:28.264Z,1.70
2018-01-24T17:57:55.692Z,1.50
2018-01-24T18:00:23.116Z,1.40
2018-01-24T18:02:50.604Z,1.63
2018-01-24T18:05:18.049Z,1.67
2018-01-24T18:07:45.608Z,5.20
2018-01-24T18:10:13.076Z,1.53
2018-01-24T18:12:40.506Z,1.60
2018-01-24T18:15:07.992Z,1.50
2018-01-24T18:17:35.548Z,1.40
2018-01-24T18:20:02.984Z,1.30
2018-01-24T18:22:30.412Z,1.50
2018-01-24T18:24:58.612Z,1.57
2018-01-24T18:27:26.406Z,1.60
2018-01-24T18:29:53.912Z,1.90
2018-01-24T18:32:21.347Z,2.10
2018-01-24T18:34:49.028Z,1.73
2018-01-24T18:37:16.456Z,1.63
2018-01-24T18:39:43.880Z,1.73
2018-01-24T18:42:11.401Z,1.57
2018-01-24T18:44:38.862Z,1.80
2018-01-24T18:47:06.317Z,1.70
2018-01-24T18:49:33.784Z,1.60
2018-01-24T18:52:01.210Z,1.60
2018-01-24T18:54:28.632Z,1.80
2018-01-24T18:56:56.087Z,1.57
2018-01-24T18:59:23.604Z,1.57
2018-01-24T19:01:51.032Z,1.60
2018-01-24T19:04:18.457Z,1.97
2018-01-24T19:06:45.884Z,1.90
2018-01-24T19:09:13.335Z,2.00
2018-01-24T19:11:40.779Z,2.03
2018-01-24T19:14:08.237Z,2.37
2018-01-24T19:16:36.418Z,2.70
2018-01-24T19:19:03.856Z,2.03
2018-01-24T19:21:31.332Z,2.30
2018-01-24T19:23:58.781Z,2.40
2018-01-24T19:26:26.460Z,2.20
2018-01-24T19:28:53.928Z,2.20
2018-01-24T19:31:21.369Z,2.20
2018-01-24T19:33:48.824Z,2.27
2018-01-24T19:36:16.252Z,2.33
2018-01-24T19:38:43.684Z,2.60
2018-01-24T19:41:11.915Z,2.30
2018-01-24T19:43:39.464Z,2.20
2018-01-24T19:46:06.880Z,2.17
2018-01-24T19:48:34.646Z,2.10
2018-01-24T19:51:02.876Z,2.37
2018-01-24T19:53:30.292Z,2.40
2018-01-24T19:55:57.737Z,2.50
2018-01-24T19:58:25.935Z,2.67
2018-01-24T20:00:53.360Z,2.60
2018-01-24T20:03:21.586Z,2.80
2018-01-24T20:05:49.015Z,3.30
2018-01-24T20:08:16.447Z,3.23
2018-01-24T20:10:44.057Z,3.57
2018-01-24T20:13:11.496Z,3.87
2018-01-24T20:15:38.960Z,2.90
2018-01-24T20:18:07.448Z,2.63
2018-01-24T20:20:34.892Z,1.70
2018-01-24T20:23:02.316Z,1.10
2018-01-24T20:25:30.525Z,0.73
2018-01-24T20:27:57.999Z,0.90
2018-01-24T20:30:25.428Z,1.27
2018-01-24T20:32:52.872Z,0.50
2018-01-24T20:35:20.292Z,0.50
2018-01-24T20:37:47.777Z,0.80
2018-01-24T20:40:15.228Z,0.60
2018-01-24T20:42:42.684Z,0.60
2018-01-24T20:45:10.108Z,0.70
2018-01-24T20:47:37.546Z,0.40
2018-01-24T20:50:05.060Z,0.63
2018-01-24T20:52:32.487Z,0.50
2018-01-24T20:54:59.980Z,0.40
2018-01-24T20:57:27.403Z,0.63
2018-01-24T20:59:54.892Z,0.47
2018-01-24T21:02:22.330Z,0.60
2018-01-24T21:04:49.800Z,0.60
2018-01-24T21:07:17.228Z,0.80
2018-01-24T21:09:44.708Z,0.70
2018-01-24T21:12:12.134Z,0.60
2018-01-24T21:14:40.331Z,0.73
2018-01-24T21:17:07.764Z,0.90
2018-01-24T21:19:35.981Z,1.33
2018-01-24T21:22:03.397Z,1.40
2018-01-24T21:24:31.088Z,2.77
2018-01-24T21:26:58.509Z,1.03
2018-01-24T21:29:38.700Z,1.83
2018-01-24T21:32:18.140Z,1.00
2018-01-24T21:34:57.576Z,2.20
2018-01-24T21:37:25.004Z,2.50
2018-01-24T21:39:53.192Z,1.50
2018-01-24T21:42:20.632Z,1.90
2018-01-24T21:44:48.837Z,3.30
2018-01-24T21:47:16.296Z,3.30
2018-01-24T21:49:43.785Z,2.40
2018-01-24T21:52:11.215Z,3.47
2018-01-24T21:54:38.641Z,2.50
2018-01-24T21:57:06.092Z,5.00
2018-01-24T21:59:34.296Z,1.83
2018-01-24T22:02:01.708Z,1.67
2018-01-24T22:04:29.944Z,1.20
2018-01-24T22:06:57.388Z,1.40
2018-01-24T22:09:24.841Z,1.50
2018-01-24T22:11:52.257Z,1.50
2018-01-24T22:14:20.441Z,2.30
2018-01-24T22:16:48.628Z,2.33
2018-01-24T22:19:16.112Z,2.27
2018-01-24T22:21:43.560Z,2.00
2018-01-24T22:24:10.984Z,2.00
2018-01-24T22:26:39.180Z,2.93
2018-01-24T22:29:06.615Z,2.77
2018-01-24T22:31:34.799Z,3.47
2018-01-24T22:34:02.280Z,4.00
2018-01-24T22:36:29.696Z,4.20
2018-01-24T22:38:57.906Z,5.70
2018-01-24T22:41:25.311Z,4.93
2018-01-24T22:43:52.832Z,5.60
2018-01-24T22:46:20.279Z,6.03
2018-01-24T22:48:47.734Z,6.37
2018-01-24T22:51:20.697Z,5.60
2018-01-24T22:53:48.894Z,6.03
2018-01-24T22:56:16.355Z,6.00
2018-01-24T22:58:43.823Z,6.00
2018-01-24T23:01:11.265Z,6.67
2018-01-24T23:03:38.731Z,5.60
2018-01-24T23:06:06.160Z,4.70
2018-01-24T23:08:33.945Z,5.60
2018-01-24T23:11:01.344Z,5.13
2018-01-24T23:13:28.763Z,4.70
2018-01-24T23:15:56.199Z,4.23
2018-01-24T23:18:23.676Z,3.97
2018-01-24T23:20:51.136Z,5.20
2018-01-24T23:23:18.688Z,2.40
2018-01-24T23:25:46.154Z,2.43
2018-01-24T23:28:13.565Z,1.77
2018-01-24T23:30:41.776Z,1.53
2018-01-24T23:33:09.184Z,1.70
2018-01-24T23:35:37.519Z,1.40
2018-01-24T23:38:04.976Z,1.90
2018-01-24T23:40:32.435Z,2.17
2018-01-24T23:42:59.822Z,1.10
2018-01-24T23:45:28.020Z,1.00
2018-01-24T23:47:56.278Z,1.33
2018-01-24T23:50:23.792Z,0.67
2018-01-24T23:52:51.247Z,0.80
2018-01-24T23:55:18.708Z,0.70
2018-01-24T23:57:46.134Z,0.60
